Time;durP1;ratioP1;P1;durP2;ratioP2;P2;SDS_P1;SDS_P2;PMS_P1;PMS_P2;Temp;Humidity;BMP_temperature;BMP_pressure;BME280_temperature;BME280_humidity;BME280_pressure;Samples;Min_cycle;Max_cycle;Signal;HPM_P1;HPM_P2
2024/01/16 00:01:54;;;;;;;16.60;4.43;;;-0.80;99.90;;;;;;5085791;28;20051;-79
2024/01/16 00:04:21;;;;;;;10.55;3.67;;;-0.90;99.90;;;;;;5091762;28;20040;-78
2024/01/16 00:06:47;;;;;;;12.23;4.90;;;-0.90;99.90;;;;;;5085897;28;20167;-78
2024/01/16 00:09:13;;;;;;;14.50;5.10;;;-0.90;99.90;;;;;;5086664;28;20044;-78
2024/01/16 00:11:42;;;;;;;10.20;5.07;;;-1.00;99.90;;;;;;5091343;28;20044;-78
2024/01/16 00:14:08;;;;;;;11.02;4.85;;;-1.00;99.90;;;;;;5088878;28;20490;-78
2024/01/16 00:16:41;;;;;;;16.60;4.70;;;-1.00;99.90;;;;;;5085814;28;20051;-79
2024/01/16 00:19:07;;;;;;;17.02;5.20;;;-1.00;99.90;;;;;;5076031;28;20048;-78
2024/01/16 00:21:32;;;;;;;15.13;5.20;;;-0.90;99.90;;;;;;5076989;28;20515;-79
2024/01/16 00:23:58;;;;;;;12.63;4.45;;;-1.00;99.90;;;;;;5072328;28;20430;-80
2024/01/16 00:26:24;;;;;;;13.55;4.80;;;-1.00;99.90;;;;;;5076828;28;20488;-79
2024/01/16 00:28:49;;;;;;;10.23;4.95;;;-1.00;99.90;;;;;;5078733;28;20536;-78
2024/01/16 00:31:15;;;;;;;8.63;4.38;;;-1.10;99.90;;;;;;5067963;28;20044;-78
2024/01/16 00:33:41;;;;;;;7.35;4.10;;;-1.10;99.90;;;;;;5071072;28;20462;-78
2024/01/16 00:36:07;;;;;;;18.27;5.38;;;-1.20;99.90;;;;;;5074007;28;20119;-77
2024/01/16 00:38:35;;;;;;;10.13;4.60;;;-1.30;99.90;;;;;;5077210;28;20448;-78
2024/01/16 00:41:01;;;;;;;13.63;4.45;;;-1.20;99.90;;;;;;5073233;28;20047;-78
2024/01/16 00:43:27;;;;;;;11.38;4.88;;;-1.20;99.90;;;;;;5080563;28;20045;-78
2024/01/16 00:45:53;;;;;;;15.48;4.50;;;-1.10;99.90;;;;;;5075986;28;20064;-78
2024/01/16 00:48:20;;;;;;;18.63;7.70;;;-1.10;99.90;;;;;;5072323;28;20040;-78
2024/01/16 00:50:49;;;;;;;10.68;4.15;;;-1.10;99.90;;;;;;5072480;28;20036;-78
2024/01/16 00:53:16;;;;;;;9.52;3.30;;;-1.10;99.90;;;;;;5073628;28;20041;-78
2024/01/16 00:55:42;;;;;;;10.25;4.22;;;-1.10;99.90;;;;;;5072839;28;20040;-79
2024/01/16 00:58:08;;;;;;;14.52;3.65;;;-1.10;99.90;;;;;;5077576;28;20087;-78
2024/01/16 01:00:35;;;;;;;11.77;4.43;;;-1.10;99.90;;;;;;5075585;28;20105;-79
2024/01/16 01:03:01;;;;;;;13.00;3.95;;;-1.10;99.90;;;;;;5077573;28;20055;-79
2024/01/16 01:05:28;;;;;;;17.38;3.78;;;-1.10;99.90;;;;;;5074986;28;20045;-78
2024/01/16 01:07:55;;;;;;;11.20;3.72;;;-1.10;99.90;;;;;;5073956;28;20545;-79
2024/01/16 01:10:21;;;;;;;13.48;3.85;;;-1.10;99.90;;;;;;5074070;28;20043;-79
2024/01/16 01:12:47;;;;;;;10.55;3.28;;;-1.10;99.90;;;;;;5076052;28;20041;-78
2024/01/16 01:15:13;;;;;;;11.70;4.57;;;-1.10;99.90;;;;;;5072120;28;20102;-78
2024/01/16 01:17:41;;;;;;;19.08;4.15;;;-1.10;99.90;;;;;;5074427;28;20127;-78
2024/01/16 01:20:08;;;;;;;14.90;3.15;;;-1.20;99.90;;;;;;5075611;28;20095;-78
2024/01/16 01:22:35;;;;;;;18.40;4.45;;;-1.20;99.90;;;;;;5083326;28;20036;-78
2024/01/16 01:25:01;;;;;;;11.20;3.95;;;-1.20;99.90;;;;;;5069445;28;20040;-77
2024/01/16 01:27:27;;;;;;;20.90;5.75;;;-1.20;99.90;;;;;;5073897;28;20059;-78
2024/01/16 01:29:52;;;;;;;11.70;4.68;;;-1.10;99.90;;;;;;5069321;28;20033;-77
2024/01/16 01:32:18;;;;;;;12.63;4.30;;;-1.20;99.90;;;;;;5070503;28;20036;-78
2024/01/16 01:34:44;;;;;;;14.07;5.00;;;-1.10;99.90;;;;;;5074458;28;20041;-78
2024/01/16 01:37:10;;;;;;;13.35;4.78;;;-1.20;99.90;;;;;;5075261;28;20059;-79
2024/01/16 01:39:35;;;;;;;11.80;4.15;;;-1.20;99.90;;;;;;5069999;28;20045;-77
2024/01/16 01:42:01;;;;;;;11.38;4.45;;;-1.20;99.90;;;;;;5074021;28;20052;-78
2024/01/16 01:44:27;;;;;;;17.70;5.03;;;-1.20;99.90;;;;;;5074343;28;20070;-78
2024/01/16 01:46:58;;;;;;;11.60;4.65;;;-1.10;99.90;;;;;;5072874;28;20121;-78
2024/01/16 01:49:26;;;;;;;8.77;4.50;;;-1.10;99.90;;;;;;5092936;28;20115;-78
2024/01/16 01:51:52;;;;;;;19.52;5.90;;;-1.10;99.90;;;;;;5076100;28;20049;-77
2024/01/16 01:54:20;;;;;;;14.15;5.00;;;-1.10;99.90;;;;;;5060388;28;20088;-78
2024/01/16 01:56:47;;;;;;;12.48;5.15;;;-1.10;99.90;;;;;;5074875;28;20051;-78
2024/01/16 01:59:18;;;;;;;12.32;5.20;;;-1.10;99.90;;;;;;5076750;28;20048;-78
2024/01/16 02:01:46;;;;;;;16.40;5.35;;;-1.20;99.90;;;;;;5074749;28;20047;-79
2024/01/16 02:04:17;;;;;;;17.95;4.70;;;-1.10;99.90;;;;;;5073984;28;20044;-78
2024/01/16 02:06:46;;;;;;;16.23;5.25;;;-1.20;99.90;;;;;;5073945;28;20047;-78
2024/01/16 02:09:15;;;;;;;20.98;5.20;;;-1.10;99.90;;;;;;5075419;28;20425;-79
2024/01/16 02:11:41;;;;;;;12.52;4.80;;;-1.10;99.90;;;;;;5080521;28;20029;-78
2024/01/16 02:14:08;;;;;;;17.52;5.22;;;-1.10;99.90;;;;;;5068027;28;20072;-77
2024/01/16 02:16:38;;;;;;;18.73;6.25;;;-1.10;99.90;;;;;;5071977;28;20032;-77
2024/01/16 02:19:04;;;;;;;12.65;4.70;;;-1.20;99.90;;;;;;5075932;28;20064;-77
2024/01/16 02:21:43;;;;;;;13.32;5.03;;;-1.20;99.90;;;;;;5065530;28;20028;-77
2024/01/16 02:24:11;;;;;;;14.57;5.80;;;-1.20;99.90;;;;;;5077666;28;20040;-77
2024/01/16 02:26:37;;;;;;;16.45;5.65;;;-1.20;99.90;;;;;;5083959;28;20219;-77
2024/01/16 02:29:06;;;;;;;15.20;6.13;;;-1.20;99.90;;;;;;5071588;28;20588;-78
2024/01/16 02:31:32;;;;;;;15.52;5.75;;;-1.20;99.90;;;;;;5070694;28;20036;-77
2024/01/16 02:33:58;;;;;;;14.40;6.00;;;-1.20;99.90;;;;;;5071240;28;20185;-77
2024/01/16 02:36:24;;;;;;;21.65;5.50;;;-1.10;99.90;;;;;;5071755;28;20064;-77
2024/01/16 02:38:51;;;;;;;18.48;6.40;;;-1.10;99.90;;;;;;5067993;28;20046;-78
2024/01/16 02:41:17;;;;;;;16.98;5.82;;;-1.20;99.90;;;;;;5072227;28;20115;-77
2024/01/16 02:43:46;;;;;;;19.55;5.43;;;-1.10;99.90;;;;;;5073081;28;20032;-76
2024/01/16 02:46:12;;;;;;;12.13;5.15;;;-1.10;99.90;;;;;;5074245;28;20048;-78
2024/01/16 02:48:38;;;;;;;15.18;5.03;;;-1.10;99.90;;;;;;5070498;28;20119;-77
2024/01/16 02:51:05;;;;;;;16.35;5.78;;;-1.20;99.90;;;;;;5072812;28;20039;-76
2024/01/16 02:53:31;;;;;;;19.98;5.03;;;-1.20;99.90;;;;;;5070241;28;20036;-77
2024/01/16 02:56:00;;;;;;;13.93;5.85;;;-1.30;99.90;;;;;;5069266;28;20602;-77
2024/01/16 02:58:30;;;;;;;18.00;4.95;;;-1.30;99.90;;;;;;5072344;28;20040;-77
2024/01/16 03:00:57;;;;;;;12.07;4.75;;;-1.20;99.90;;;;;;5066758;28;20532;-77
2024/01/16 03:03:24;;;;;;;19.45;5.05;;;-1.20;99.90;;;;;;5070079;28;20104;-77
2024/01/16 03:05:55;;;;;;;18.85;5.57;;;-1.20;99.90;;;;;;5070483;28;20029;-77
2024/01/16 03:08:23;;;;;;;12.20;4.88;;;-1.20;99.90;;;;;;5074086;28;20036;-77
2024/01/16 03:10:49;;;;;;;23.77;6.00;;;-1.20;99.90;;;;;;5073861;28;20033;-77
2024/01/16 03:13:15;;;;;;;18.25;4.78;;;-1.20;99.90;;;;;;5076836;28;20039;-77
2024/01/16 03:15:41;;;;;;;15.70;4.32;;;-1.20;99.90;;;;;;5069373;28;20033;-77
2024/01/16 03:18:07;;;;;;;12.73;4.28;;;-1.20;99.90;;;;;;5075588;28;20048;-77
2024/01/16 03:20:32;;;;;;;14.05;4.55;;;-1.20;99.90;;;;;;5088536;28;20036;-77
2024/01/16 03:22:58;;;;;;;9.23;4.45;;;-1.20;99.90;;;;;;5071655;28;20031;-78
2024/01/16 03:25:24;;;;;;;19.85;4.85;;;-1.20;99.90;;;;;;5065282;28;20051;-77
2024/01/16 03:27:50;;;;;;;13.98;4.57;;;-1.20;99.90;;;;;;5070698;28;20764;-78
2024/01/16 03:30:15;;;;;;;15.10;5.15;;;-1.20;99.90;;;;;;5063712;28;20044;-77
2024/01/16 03:32:42;;;;;;;12.77;4.85;;;-1.30;99.90;;;;;;5070578;28;20557;-77
2024/01/16 03:35:07;;;;;;;17.45;5.50;;;-1.20;99.90;;;;;;5072568;28;20096;-78
2024/01/16 03:37:34;;;;;;;16.52;5.70;;;-1.20;99.90;;;;;;5070698;28;20049;-77
2024/01/16 03:40:00;;;;;;;15.07;6.32;;;-1.20;99.90;;;;;;5065752;28;20155;-78
2024/01/16 03:42:26;;;;;;;13.70;6.10;;;-1.20;99.90;;;;;;5072100;28;20044;-78
2024/01/16 03:44:53;;;;;;;18.75;5.75;;;-1.20;99.90;;;;;;5071974;28;20040;-78
2024/01/16 03:47:19;;;;;;;18.98;5.07;;;-1.20;99.90;;;;;;5073381;28;20048;-78
2024/01/16 03:49:45;;;;;;;15.80;5.20;;;-1.20;99.90;;;;;;5073367;28;20044;-78
2024/01/16 03:52:10;;;;;;;22.35;6.22;;;-1.20;99.90;;;;;;5073091;28;20498;-79
2024/01/16 03:54:36;;;;;;;14.82;5.18;;;-1.20;99.90;;;;;;5073225;28;20051;-77
2024/01/16 03:57:02;;;;;;;19.10;6.50;;;-1.20;99.90;;;;;;5066947;28;20041;-78
2024/01/16 03:59:28;;;;;;;17.42;6.47;;;-1.20;99.90;;;;;;5077541;28;20048;-78
2024/01/16 04:01:53;;;;;;;20.90;6.60;;;-1.20;99.90;;;;;;5076776;28;20033;-78
2024/01/16 04:04:22;;;;;;;29.13;6.68;;;-1.20;99.90;;;;;;5079219;28;20082;-77
2024/01/16 04:06:48;;;;;;;13.65;5.40;;;-1.20;99.90;;;;;;5063526;28;20414;-78
2024/01/16 04:09:14;;;;;;;13.65;5.20;;;-1.20;99.90;;;;;;5078350;28;20047;-78
2024/01/16 04:11:40;;;;;;;13.30;5.28;;;-1.20;99.90;;;;;;5074776;28;20047;-78
2024/01/16 04:14:06;;;;;;;14.68;5.65;;;-1.20;99.90;;;;;;5073249;28;20088;-77
2024/01/16 04:16:33;;;;;;;11.77;5.40;;;-1.30;99.90;;;;;;5076980;28;20068;-78
2024/01/16 04:18:59;;;;;;;19.45;5.43;;;-1.30;99.90;;;;;;5067922;28;20693;-78
2024/01/16 04:21:26;;;;;;;18.13;5.40;;;-1.20;99.90;;;;;;5071125;28;20051;-77
2024/01/16 04:23:52;;;;;;;17.67;5.22;;;-1.20;99.90;;;;;;5070778;28;20120;-78
2024/01/16 04:26:17;;;;;;;21.30;5.50;;;-1.20;99.90;;;;;;5074487;28;20047;-78
2024/01/16 04:28:43;;;;;;;17.42;5.20;;;-1.20;99.90;;;;;;5077130;28;20045;-78
2024/01/16 04:31:11;;;;;;;30.13;6.10;;;-1.20;99.90;;;;;;5073999;28;20155;-78
2024/01/16 04:33:38;;;;;;;15.73;5.20;;;-1.10;99.90;;;;;;5068149;28;20049;-78
2024/01/16 04:36:05;;;;;;;22.20;5.63;;;-1.10;99.90;;;;;;5080214;28;20048;-78
2024/01/16 04:38:31;;;;;;;12.15;5.00;;;-1.10;99.90;;;;;;5077052;28;20546;-78
2024/01/16 04:40:57;;;;;;;14.88;5.22;;;-1.10;99.90;;;;;;5076791;28;20882;-78
2024/01/16 04:43:23;;;;;;;16.88;5.18;;;-1.10;99.90;;;;;;5076582;28;20045;-77
2024/01/16 04:45:49;;;;;;;15.75;5.63;;;-1.10;99.90;;;;;;5077053;28;20032;-78
2024/01/16 04:48:15;;;;;;;17.77;5.75;;;-1.20;99.90;;;;;;5077144;28;20039;-78
2024/01/16 04:50:41;;;;;;;17.17;5.00;;;-1.20;99.90;;;;;;5072273;28;20036;-77
2024/01/16 04:53:07;;;;;;;15.43;5.30;;;-1.10;99.90;;;;;;5075886;28;20051;-78
2024/01/16 04:55:33;;;;;;;15.68;5.28;;;-1.10;99.90;;;;;;5075725;28;20040;-77
2024/01/16 04:58:00;;;;;;;15.40;4.43;;;-1.10;99.90;;;;;;5072015;28;20108;-77
2024/01/16 05:00:27;;;;;;;15.45;5.03;;;-1.10;99.90;;;;;;5070512;28;20032;-78
2024/01/16 05:02:53;;;;;;;12.55;4.90;;;-1.10;99.90;;;;;;5076500;28;20035;-78
2024/01/16 05:05:19;;;;;;;12.40;4.72;;;-1.10;99.90;;;;;;5076549;28;20557;-80
2024/01/16 05:07:46;;;;;;;15.25;5.28;;;-1.10;99.90;;;;;;5077467;28;20036;-78
2024/01/16 05:10:13;;;;;;;18.23;5.07;;;-1.20;99.90;;;;;;5081785;28;20028;-79
2024/01/16 05:12:43;;;;;;;12.77;4.85;;;-1.20;99.90;;;;;;5080035;28;20029;-79
2024/01/16 05:15:11;;;;;;;14.90;4.85;;;-1.20;99.90;;;;;;5076693;28;20397;-77
2024/01/16 05:17:37;;;;;;;17.30;5.20;;;-1.20;99.90;;;;;;5073000;28;20057;-78
2024/01/16 05:20:04;;;;;;;15.73;5.00;;;-1.20;99.90;;;;;;5079179;28;20122;-79
2024/01/16 05:22:30;;;;;;;13.95;4.55;;;-1.20;99.90;;;;;;5079056;28;20059;-79
2024/01/16 05:24:56;;;;;;;12.35;4.95;;;-1.20;99.90;;;;;;5075972;28;20040;-78
2024/01/16 05:27:22;;;;;;;12.30;4.63;;;-1.20;99.90;;;;;;5076689;28;20040;-77
2024/01/16 05:29:48;;;;;;;14.20;5.05;;;-1.10;99.90;;;;;;5074856;28;20055;-80
2024/01/16 05:32:14;;;;;;;16.05;5.03;;;-1.10;99.90;;;;;;5062840;28;20051;-78
2024/01/16 05:34:39;;;;;;;18.52;4.82;;;-1.10;99.90;;;;;;5075690;28;20045;-80
2024/01/16 05:37:05;;;;;;;14.75;4.78;;;-1.00;99.90;;;;;;5076753;28;20055;-79
2024/01/16 05:39:31;;;;;;;9.73;4.47;;;-1.00;99.90;;;;;;5081861;28;20040;-81
2024/01/16 05:41:57;;;;;;;13.77;4.00;;;-1.00;99.90;;;;;;5080704;28;20055;-79
2024/01/16 05:44:23;;;;;;;14.50;4.38;;;-1.00;99.90;;;;;;5076450;28;20039;-77
2024/01/16 05:46:48;;;;;;;19.50;5.10;;;-1.00;99.90;;;;;;5086559;28;20043;-80
2024/01/16 05:49:14;;;;;;;12.57;4.93;;;-0.90;99.90;;;;;;5077287;28;20040;-79
2024/01/16 05:51:40;;;;;;;11.52;4.38;;;-0.90;99.90;;;;;;5074521;28;20755;-81
2024/01/16 05:54:06;;;;;;;10.75;4.50;;;-0.90;99.90;;;;;;5076189;28;20633;-78
2024/01/16 05:56:33;;;;;;;8.75;3.75;;;-0.90;99.90;;;;;;5075933;28;20074;-80
2024/01/16 05:58:59;;;;;;;10.80;4.15;;;-0.90;99.90;;;;;;5071084;28;20037;-78
2024/01/16 06:01:27;;;;;;;13.93;4.40;;;-0.90;99.90;;;;;;5066929;28;20619;-77
2024/01/16 06:03:54;;;;;;;12.75;3.75;;;-0.90;99.90;;;;;;5092473;28;20410;-78
2024/01/16 06:06:21;;;;;;;13.38;4.20;;;-0.90;99.90;;;;;;5074162;28;20044;-79
2024/01/16 06:08:46;;;;;;;15.30;4.00;;;-1.00;99.90;;;;;;5073719;28;20045;-80
2024/01/16 06:11:12;;;;;;;11.85;4.15;;;-1.00;99.90;;;;;;5075564;28;20094;-78
2024/01/16 06:13:40;;;;;;;17.02;4.45;;;-1.00;99.90;;;;;;5071792;28;20066;-79
2024/01/16 06:16:08;;;;;;;11.73;4.55;;;-1.00;99.90;;;;;;5075761;28;20063;-80
2024/01/16 06:18:36;;;;;;;12.88;4.55;;;-0.90;99.90;;;;;;5067228;28;20047;-79
2024/01/16 06:21:03;;;;;;;15.18;4.03;;;-0.90;99.90;;;;;;5076137;28;20102;-81
2024/01/16 06:23:33;;;;;;;20.95;5.47;;;-0.80;99.90;;;;;;5079008;28;20308;-79
2024/01/16 06:26:02;;;;;;;11.00;4.47;;;-0.90;99.90;;;;;;5077698;28;20040;-78
2024/01/16 06:28:30;;;;;;;17.08;4.50;;;-1.00;99.90;;;;;;5074636;28;20033;-80
2024/01/16 06:30:56;;;;;;;9.40;4.07;;;-1.00;99.90;;;;;;5085893;28;20081;-78
2024/01/16 06:33:22;;;;;;;6.47;3.55;;;-1.00;99.90;;;;;;5070090;28;20044;-78
2024/01/16 06:35:47;;;;;;;14.32;4.50;;;-0.90;99.90;;;;;;5094381;28;20053;-79
2024/01/16 06:38:13;;;;;;;12.98;4.88;;;-0.90;99.90;;;;;;5078494;28;20033;-78
2024/01/16 06:40:39;;;;;;;10.50;4.65;;;-0.90;99.90;;;;;;5077448;28;20036;-81
2024/01/16 06:43:06;;;;;;;8.40;4.18;;;-0.90;99.90;;;;;;5081230;28;20036;-79
2024/01/16 06:45:31;;;;;;;11.65;4.10;;;-0.90;99.90;;;;;;5074518;28;20688;-80
2024/01/16 06:47:57;;;;;;;10.35;4.28;;;-0.80;99.90;;;;;;5070756;28;20044;-80
2024/01/16 06:50:23;;;;;;;12.85;4.43;;;-0.90;99.90;;;;;;5073228;28;20068;-80
2024/01/16 06:52:50;;;;;;;13.20;4.50;;;-0.90;99.90;;;;;;5075202;28;20070;-80
2024/01/16 06:55:16;;;;;;;7.78;4.00;;;-0.90;99.90;;;;;;5076530;28;20048;-80
2024/01/16 06:57:42;;;;;;;14.15;4.97;;;-0.90;99.90;;;;;;5075850;28;20410;-80
2024/01/16 07:00:08;;;;;;;12.90;4.30;;;-0.90;99.90;;;;;;5073653;28;20024;-80
2024/01/16 07:02:35;;;;;;;11.75;3.90;;;-0.90;99.90;;;;;;5074297;28;20729;-79
2024/01/16 07:05:14;;;;;;;10.82;4.25;;;-0.90;99.90;;;;;;5066249;28;20037;-80
2024/01/16 07:07:43;;;;;;;16.23;5.00;;;-0.80;99.90;;;;;;5091520;28;20044;-78
2024/01/16 07:10:18;;;;;;;13.95;4.50;;;-0.80;99.90;;;;;;5076093;28;20118;-81
2024/01/16 07:12:49;;;;;;;10.27;4.97;;;-0.80;99.90;;;;;;5077293;28;20032;-79
2024/01/16 07:15:15;;;;;;;8.88;4.20;;;-0.90;99.90;;;;;;5077298;28;20239;-82
2024/01/16 07:17:41;;;;;;;10.30;3.72;;;-0.80;99.90;;;;;;5072692;28;20102;-80
2024/01/16 07:20:25;;;;;;;;;;;;;;;;;;;;;
2024/01/16 07:22:53;;;;;;;10.60;4.22;;;-0.80;99.90;;;;;;5082562;28;20037;-81
2024/01/16 07:25:19;;;;;;;11.57;4.30;;;-0.80;99.90;;;;;;5076619;28;20142;-81
2024/01/16 07:27:49;;;;;;;12.10;4.68;;;-0.80;99.90;;;;;;5076919;28;20037;-81
2024/01/16 07:30:17;;;;;;;16.50;4.85;;;-0.80;99.90;;;;;;5077896;28;20037;-80
2024/01/16 07:32:43;;;;;;;9.20;4.65;;;-0.90;99.90;;;;;;5076160;28;20037;-80
2024/01/16 07:35:10;;;;;;;14.80;5.03;;;-0.90;99.90;;;;;;5079511;28;20036;-82
2024/01/16 07:37:36;;;;;;;8.75;4.18;;;-0.90;99.90;;;;;;5077599;28;20055;-83
2024/01/16 07:40:02;;;;;;;9.93;4.20;;;-0.90;99.90;;;;;;5080169;28;20032;-79
2024/01/16 07:42:33;;;;;;;10.48;4.53;;;-0.90;99.90;;;;;;5075690;28;20075;-78
2024/01/16 07:45:01;;;;;;;13.73;4.97;;;-0.90;99.90;;;;;;5075327;28;20036;-80
2024/01/16 07:47:28;;;;;;;13.63;4.93;;;-0.90;99.90;;;;;;5078524;28;20114;-80
2024/01/16 07:49:53;;;;;;;9.65;4.68;;;-0.90;99.90;;;;;;5075121;28;20044;-79
2024/01/16 07:52:19;;;;;;;13.13;4.55;;;-0.90;99.90;;;;;;5073444;28;20113;-80
2024/01/16 07:54:46;;;;;;;14.75;4.35;;;-0.90;99.90;;;;;;5070540;28;20040;-78
2024/01/16 07:57:12;;;;;;;11.23;4.75;;;-0.80;99.90;;;;;;5070900;28;20498;-80
2024/01/16 07:59:38;;;;;;;10.50;4.93;;;-0.80;99.90;;;;;;5082163;28;20033;-80
2024/01/16 08:02:06;;;;;;;8.73;4.47;;;-0.80;99.90;;;;;;5073727;28;20040;-80
2024/01/16 08:04:33;;;;;;;12.95;4.95;;;-0.80;99.90;;;;;;5075021;28;20036;-78
2024/01/16 08:06:59;;;;;;;10.55;4.50;;;-0.80;99.90;;;;;;5079526;28;20052;-80
2024/01/16 08:09:31;;;;;;;8.25;4.57;;;-0.80;99.90;;;;;;5083809;28;20045;-80
2024/01/16 08:11:57;;;;;;;11.82;5.20;;;-0.80;99.90;;;;;;5071356;28;20037;-78
2024/01/16 08:14:23;;;;;;;9.43;4.75;;;-0.70;99.90;;;;;;5071463;28;20066;-79
2024/01/16 08:16:48;;;;;;;13.05;5.07;;;-0.70;99.90;;;;;;5083936;28;20028;-79
2024/01/16 08:19:30;;;;;;;13.02;4.82;;;-0.70;99.90;;;;;;5079969;28;20060;-82
2024/01/16 08:22:02;;;;;;;9.43;4.63;;;-0.80;99.90;;;;;;5075113;28;20116;-77
2024/01/16 08:24:28;;;;;;;13.23;5.07;;;-0.70;99.90;;;;;;5070170;28;20048;-79
2024/01/16 08:26:57;;;;;;;9.68;4.13;;;-0.80;99.90;;;;;;5073725;28;20048;-78
2024/01/16 08:29:23;;;;;;;13.65;4.88;;;-0.80;99.90;;;;;;5072664;28;20041;-77
2024/01/16 08:31:53;;;;;;;10.30;4.13;;;-0.80;99.90;;;;;;5071339;28;20040;-78
2024/01/16 08:34:19;;;;;;;13.55;4.80;;;-0.70;99.90;;;;;;5078041;28;20047;-78
2024/01/16 08:36:46;;;;;;;13.52;5.13;;;-0.70;99.90;;;;;;5076409;28;20060;-78
2024/01/16 08:39:13;;;;;;;13.65;4.47;;;-0.70;99.90;;;;;;5073703;28;20036;-78
2024/01/16 08:41:39;;;;;;;11.32;4.05;;;-0.60;99.90;;;;;;5076295;28;20109;-78
2024/01/16 08:44:05;;;;;;;11.10;5.03;;;-0.50;99.90;;;;;;5077161;28;20051;-79
2024/01/16 08:46:31;;;;;;;8.68;4.45;;;-0.60;99.90;;;;;;5067769;28;20044;-79
2024/01/16 08:49:13;;;;;;;12.43;3.70;;;-0.60;99.90;;;;;;5075525;28;20377;-78
2024/01/16 08:51:41;;;;;;;21.60;7.78;;;-0.60;99.90;;;;;;5080875;28;20037;-77
2024/01/16 08:54:09;;;;;;;11.80;4.07;;;-0.60;99.90;;;;;;5069402;28;20062;-77
2024/01/16 08:56:36;;;;;;;12.88;4.70;;;-0.60;99.90;;;;;;5070960;28;20433;-78
2024/01/16 08:59:05;;;;;;;14.20;3.45;;;-0.50;99.90;;;;;;5083269;28;20371;-78
2024/01/16 09:01:31;;;;;;;12.60;3.80;;;-0.50;99.90;;;;;;5072062;28;20037;-79
2024/01/16 09:03:57;;;;;;;17.80;4.07;;;-0.50;99.90;;;;;;5068058;28;20067;-79
2024/01/16 09:06:24;;;;;;;11.02;3.35;;;-0.50;99.90;;;;;;5081317;28;20036;-80
2024/01/16 09:08:50;;;;;;;12.52;3.92;;;-0.50;99.90;;;;;;5077240;28;20044;-80
2024/01/16 09:11:18;;;;;;;9.82;3.30;;;-0.40;99.90;;;;;;5071132;28;20051;-79
2024/01/16 09:13:46;;;;;;;15.73;3.95;;;-0.40;99.90;;;;;;5075698;28;20072;-80
2024/01/16 09:16:12;;;;;;;7.90;3.63;;;-0.40;99.90;;;;;;5073404;28;20051;-79
2024/01/16 09:18:54;;;;;;;12.68;3.97;;;-0.40;99.90;;;;;;5075386;28;20044;-79
2024/01/16 09:21:26;;;;;;;19.50;4.18;;;-0.30;99.90;;;;;;5071492;28;20039;-79
2024/01/16 09:23:52;;;;;;;9.45;3.65;;;-0.20;99.90;;;;;;5073474;28;20041;-78
2024/01/16 09:26:20;;;;;;;12.50;3.63;;;-0.10;99.90;;;;;;5082750;28;20051;-77
2024/01/16 09:28:47;;;;;;;9.77;3.28;;;-0.10;99.90;;;;;;5081854;28;20048;-81
2024/01/16 09:31:14;;;;;;;10.60;3.88;;;0.00;99.90;;;;;;5075881;28;20072;-79
2024/01/16 09:33:41;;;;;;;11.63;3.95;;;0.00;99.90;;;;;;5073061;28;20344;-78
2024/01/16 09:36:10;;;;;;;10.10;3.80;;;0.00;99.90;;;;;;5071428;28;20682;-78
2024/01/16 09:38:36;;;;;;;11.48;3.75;;;0.00;99.90;;;;;;5074831;28;20094;-80
2024/01/16 09:41:05;;;;;;;19.60;3.95;;;-0.10;99.90;;;;;;5073232;28;20075;-80
2024/01/16 09:43:33;;;;;;;16.20;3.33;;;-0.10;99.90;;;;;;5078226;28;20052;-80
2024/01/16 09:46:04;;;;;;;10.75;3.30;;;0.00;99.90;;;;;;5078095;28;20555;-79
2024/01/16 09:48:31;;;;;;;9.63;3.28;;;0.00;99.90;;;;;;5090399;28;20064;-79
2024/01/16 09:50:57;;;;;;;9.95;3.60;;;-0.10;99.90;;;;;;5075884;28;20041;-81
2024/01/16 09:53:23;;;;;;;14.23;3.85;;;-0.10;99.90;;;;;;5076787;28;20068;-79
2024/01/16 09:55:52;;;;;;;12.77;3.55;;;0.00;99.90;;;;;;5073831;28;20060;-78
2024/01/16 09:58:20;;;;;;;11.02;3.60;;;0.00;99.90;;;;;;5073967;28;20494;-79
2024/01/16 10:00:46;;;;;;;17.60;4.13;;;0.00;99.90;;;;;;5071474;28;20029;-79
2024/01/16 10:03:16;;;;;;;14.63;3.63;;;-0.20;99.90;;;;;;5070430;28;20045;-80
2024/01/16 10:05:44;;;;;;;11.57;3.88;;;-0.10;99.90;;;;;;5074483;28;20115;-79
2024/01/16 10:08:10;;;;;;;10.70;4.28;;;-0.10;99.90;;;;;;5093706;28;20040;-79
2024/01/16 10:10:35;;;;;;;11.15;4.25;;;-0.10;99.90;;;;;;5075527;28;20435;-80
2024/01/16 10:13:02;;;;;;;16.23;5.57;;;-0.10;99.90;;;;;;5073289;28;20043;-79
2024/01/16 10:15:28;;;;;;;13.27;4.10;;;0.00;99.90;;;;;;5088399;28;20126;-80
2024/01/16 10:17:56;;;;;;;11.80;4.60;;;0.10;99.90;;;;;;5069523;28;20036;-80
2024/01/16 10:20:32;;;;;;;15.55;4.43;;;0.20;99.90;;;;;;5069286;28;20033;-79
2024/01/16 10:22:58;;;;;;;15.23;5.10;;;0.30;99.90;;;;;;5083932;28;20068;-79
2024/01/16 10:25:24;;;;;;;16.25;4.68;;;0.40;99.90;;;;;;5077435;28;20044;-80
2024/01/16 10:28:04;;;;;;;9.63;4.20;;;0.40;99.90;;;;;;5075410;28;20067;-79
2024/01/16 10:30:30;;;;;;;12.45;4.50;;;0.30;99.90;;;;;;5071605;28;20052;-79
2024/01/16 10:33:13;;;;;;;15.80;5.13;;;0.20;99.90;;;;;;5077281;28;20032;-80
2024/01/16 10:35:39;;;;;;;16.65;5.68;;;0.20;99.90;;;;;;5068290;28;20032;-79
2024/01/16 10:38:06;;;;;;;14.95;5.22;;;0.10;99.90;;;;;;5074350;28;20040;-79
2024/01/16 10:40:32;;;;;;;16.98;5.03;;;0.10;99.90;;;;;;5071274;28;20070;-80
2024/01/16 10:42:59;;;;;;;12.82;5.03;;;0.10;99.90;;;;;;5075027;28;20035;-80
2024/01/16 10:45:26;;;;;;;13.52;5.43;;;0.10;99.90;;;;;;5075761;28;20044;-80
2024/01/16 10:48:18;;;;;;;12.40;5.07;;;0.20;99.90;;;;;;5073243;28;20055;-79
2024/01/16 10:50:46;;;;;;;14.75;4.07;;;0.40;99.90;;;;;;5066136;28;20062;-78
2024/01/16 10:53:16;;;;;;;17.40;4.78;;;0.50;99.90;;;;;;5069498;28;20472;-79
2024/01/16 10:55:51;;;;;;;11.40;4.32;;;0.40;99.90;;;;;;5069469;28;20093;-81
2024/01/16 10:58:30;;;;;;;16.35;4.45;;;0.20;99.90;;;;;;5069247;28;20498;-80
2024/01/16 11:01:00;;;;;;;15.90;4.50;;;0.30;99.90;;;;;;5086177;28;20243;-79
2024/01/16 11:03:52;;;;;;;9.90;4.57;;;0.40;99.90;;;;;;5072697;28;20040;-78
2024/01/16 11:06:18;;;;;;;12.02;3.65;;;0.50;99.90;;;;;;5080769;28;20363;-78
2024/01/16 11:08:49;;;;;;;17.67;3.55;;;0.60;99.90;;;;;;5078207;28;20104;-79
2024/01/16 11:11:15;;;;;;;10.10;3.63;;;0.60;99.90;;;;;;5079216;28;20036;-80
2024/01/16 11:13:46;;;;;;;11.93;3.47;;;0.60;99.90;;;;;;5073486;28;20041;-79
2024/01/16 11:16:16;;;;;;;13.65;3.83;;;0.60;99.90;;;;;;5076852;28;20074;-79
2024/01/16 11:18:43;;;;;;;12.73;3.42;;;0.70;99.90;;;;;;5080104;28;20048;-80
2024/01/16 11:21:15;;;;;;;13.13;3.33;;;0.80;99.90;;;;;;5079881;28;20089;-80
2024/01/16 11:23:45;;;;;;;8.98;3.53;;;0.80;99.90;;;;;;5081960;28;20428;-79
2024/01/16 11:26:39;;;;;;;10.40;3.50;;;0.80;99.90;;;;;;5074464;28;20498;-79
2024/01/16 11:29:30;;;;;;;11.40;3.20;;;0.60;99.90;;;;;;5077651;28;20037;-80
2024/01/16 11:32:03;;;;;;;11.60;3.25;;;0.60;99.90;;;;;;5075140;28;20199;-79
2024/01/16 11:34:41;;;;;;;15.57;3.53;;;0.60;99.90;;;;;;5074357;28;20029;-80
2024/01/16 11:37:08;;;;;;;14.90;4.03;;;0.60;99.90;;;;;;5066865;28;20049;-80
2024/01/16 11:39:35;;;;;;;10.52;3.30;;;0.60;99.90;;;;;;5087280;28;20055;-79
2024/01/16 11:42:04;;;;;;;12.70;3.30;;;0.60;99.90;;;;;;5070036;28;20048;-79
2024/01/16 11:44:47;;;;;;;16.40;3.38;;;0.70;99.90;;;;;;5071856;28;20036;-80
2024/01/16 11:47:23;;;;;;;13.48;3.75;;;0.90;99.90;;;;;;5068978;28;20047;-78
2024/01/16 11:50:27;;;;;;;11.38;3.50;;;1.10;99.90;;;;;;5069228;28;20535;-80
2024/01/16 11:52:54;;;;;;;13.07;3.22;;;1.10;99.90;;;;;;5067873;28;20072;-79
2024/01/16 11:55:28;;;;;;;8.70;3.00;;;1.00;99.90;;;;;;5071760;28;20071;-79
2024/01/16 11:58:19;;;;;;;14.85;3.10;;;0.90;99.90;;;;;;5072177;28;20040;-80
2024/01/16 12:00:52;;;;;;;9.95;3.30;;;0.90;99.90;;;;;;5065591;28;20040;-79
2024/01/16 12:03:22;;;;;;;8.15;2.53;;;0.90;99.90;;;;;;5079931;28;20020;-81
2024/01/16 12:06:02;;;;;;;12.38;3.30;;;0.80;99.90;;;;;;5097984;28;20059;-80
2024/01/16 12:08:28;;;;;;;8.82;2.75;;;0.90;99.90;;;;;;5075641;28;20502;-79
2024/01/16 12:10:57;;;;;;;10.32;2.72;;;0.90;99.90;;;;;;5081835;28;20028;-82
2024/01/16 12:13:26;;;;;;;9.75;2.83;;;0.80;99.90;;;;;;5086432;28;20048;-79
2024/01/16 12:16:01;;;;;;;8.98;2.72;;;0.60;99.90;;;;;;5083661;28;20040;-78
2024/01/16 12:18:26;;;;;;;11.90;2.60;;;0.40;99.90;;;;;;5055816;22;20424;-63
2024/01/16 12:20:52;;;;;;;10.23;2.80;;;0.40;99.90;;;;;;5049134;28;20040;-63
2024/01/16 12:23:20;;;;;;;11.10;2.72;;;0.40;99.90;;;;;;5050029;28;20040;-62
2024/01/16 12:25:46;;;;;;;10.55;2.80;;;0.40;99.90;;;;;;5048704;28;20037;-65
2024/01/16 12:28:17;;;;;;;12.70;3.55;;;0.40;99.90;;;;;;5043746;28;20438;-61
2024/01/16 12:30:49;;;;;;;9.10;3.45;;;0.50;99.90;;;;;;5048566;28;20068;-62
2024/01/16 12:33:16;;;;;;;11.30;3.22;;;0.40;99.90;;;;;;5047710;28;20032;-62
2024/01/16 12:35:46;;;;;;;11.05;3.20;;;0.50;99.90;;;;;;5048249;28;20080;-61
2024/01/16 12:38:13;;;;;;;9.90;3.08;;;0.60;99.90;;;;;;5046962;28;20091;-60
2024/01/16 12:40:44;;;;;;;17.25;3.15;;;0.60;99.90;;;;;;5047724;28;20078;-58
2024/01/16 12:43:09;;;;;;;7.68;2.58;;;0.70;99.90;;;;;;5046676;28;20045;-61
2024/01/16 12:45:36;;;;;;;12.93;3.00;;;0.80;99.90;;;;;;5047402;28;20037;-62